Time;durP1;ratioP1;P1;durP2;ratioP2;P2;SDS_P1;SDS_P2;PMS_P1;PMS_P2;Temp;Humidity;BMP_temperature;BMP_pressure;BME280_temperature;BME280_humidity;BME280_pressure;Samples;Min_cycle;Max_cycle;Signal;HPM_P1;HPM_P2
2022/10/27 00:02:06;;;;;;;8.30;6.53;;;13.90;99.90;;;;;;6238821;23;20432;-76
2022/10/27 00:04:31;;;;;;;9.15;6.40;;;13.80;99.90;;;;;;6239471;23;20278;-76
2022/10/27 00:06:57;;;;;;;9.65;5.90;;;15.00;99.90;;;;;;6239571;23;20378;-77
2022/10/27 00:09:22;;;;;;;8.50;5.72;;;13.90;99.90;;;;;;6238840;23;20019;-76
2022/10/27 00:11:48;;;;;;;8.77;6.68;;;14.10;99.90;;;;;;6239183;23;20011;-76
2022/10/27 00:14:14;;;;;;;8.63;6.18;;;13.90;99.90;;;;;;6241460;23;20004;-76
2022/10/27 00:16:40;;;;;;;13.30;6.32;;;13.70;99.90;;;;;;6240490;23;20000;-76
2022/10/27 00:19:05;;;;;;;8.70;5.97;;;13.70;99.90;;;;;;6241857;22;20079;-76
2022/10/27 00:21:31;;;;;;;7.80;6.40;;;13.70;99.90;;;;;;6241607;23;20429;-76
2022/10/27 00:23:56;;;;;;;12.10;6.80;;;13.50;99.90;;;;;;6241448;23;20434;-76
2022/10/27 00:26:22;;;;;;;7.60;6.43;;;13.50;99.90;;;;;;6241449;23;20026;-76
2022/10/27 00:28:48;;;;;;;11.00;7.00;;;13.40;99.90;;;;;;6241478;23;20148;-76
2022/10/27 00:31:19;;;;;;;14.07;6.15;;;13.30;99.90;;;;;;6241262;23;20004;-76
2022/10/27 00:33:46;;;;;;;11.82;6.78;;;13.30;99.90;;;;;;6241843;22;20031;-76
2022/10/27 00:36:21;;;;;;;10.68;7.18;;;14.60;99.90;;;;;;6241460;22;20004;-76
2022/10/27 00:38:46;;;;;;;9.63;6.70;;;13.40;99.90;;;;;;6241702;22;20046;-76
2022/10/27 00:41:26;;;;;;;9.40;6.78;;;13.30;99.90;;;;;;6240535;23;20004;-76
2022/10/27 00:43:51;;;;;;;10.77;6.32;;;13.30;99.90;;;;;;6241608;22;20402;-76
2022/10/27 00:46:27;;;;;;;12.25;6.07;;;13.30;99.90;;;;;;6240834;23;19996;-76
2022/10/27 00:48:57;;;;;;;12.10;7.32;;;13.20;99.90;;;;;;6241519;22;20004;-76
2022/10/27 00:51:23;;;;;;;8.27;6.20;;;13.20;99.90;;;;;;6241330;22;20011;-76
2022/10/27 00:53:50;;;;;;;9.77;6.93;;;13.00;99.90;;;;;;6241795;22;20004;-76
2022/10/27 00:56:17;;;;;;;7.88;6.15;;;13.10;99.90;;;;;;6241245;22;20023;-76
2022/10/27 00:58:44;;;;;;;10.93;6.40;;;13.10;99.90;;;;;;6241000;22;20418;-76
2022/10/27 01:01:10;;;;;;;10.93;7.45;;;13.10;99.90;;;;;;6240869;22;20004;-76
2022/10/27 01:03:36;;;;;;;12.57;7.28;;;13.00;99.90;;;;;;6241531;22;20058;-76
2022/10/27 01:06:02;;;;;;;10.05;6.97;;;13.00;99.90;;;;;;6241569;22;20023;-76
2022/10/27 01:08:28;;;;;;;12.48;7.38;;;12.80;99.90;;;;;;6241257;22;20111;-76
2022/10/27 01:10:54;;;;;;;10.80;6.18;;;12.90;99.90;;;;;;6239534;23;20078;-76
2022/10/27 01:13:20;;;;;;;9.57;6.43;;;12.80;99.90;;;;;;6241221;23;20004;-76
2022/10/27 01:15:55;;;;;;;8.50;6.78;;;12.80;99.90;;;;;;6240937;22;20008;-77
2022/10/27 01:18:24;;;;;;;9.95;6.28;;;12.70;99.90;;;;;;6241299;22;20000;-76
2022/10/27 01:21:11;;;;;;;15.75;8.43;;;12.80;99.90;;;;;;6241577;23;20029;-76
2022/10/27 01:23:50;;;;;;;8.45;6.82;;;12.70;99.90;;;;;;6241257;23;20012;-76
2022/10/27 01:26:44;;;;;;;12.18;7.45;;;12.60;99.90;;;;;;6241424;23;19997;-76
2022/10/27 01:29:40;;;;;;;13.23;7.65;;;12.60;99.90;;;;;;6241012;22;20000;-76
2022/10/27 01:32:22;;;;;;;10.77;7.70;;;12.60;99.90;;;;;;6241461;23;20054;-76
2022/10/27 01:34:55;;;;;;;11.77;8.23;;;12.60;99.90;;;;;;6241117;22;20023;-76
2022/10/27 01:37:47;;;;;;;15.02;7.90;;;12.50;99.90;;;;;;6241208;23;20014;-76
2022/10/27 01:40:27;;;;;;;9.23;8.10;;;12.50;99.90;;;;;;6241109;22;20004;-77
2022/10/27 01:43:01;;;;;;;15.02;9.98;;;12.60;99.90;;;;;;6241053;22;20000;-76
2022/10/27 01:45:30;;;;;;;16.52;12.10;;;12.50;99.90;;;;;;6240918;22;20001;-77
2022/10/27 01:47:57;;;;;;;12.23;10.60;;;13.40;99.90;;;;;;6241361;22;20000;-77
2022/10/27 01:50:34;;;;;;;17.75;11.70;;;12.50;99.90;;;;;;6241295;22;20003;-77
2022/10/27 01:53:00;;;;;;;14.32;11.07;;;12.50;99.90;;;;;;6241434;22;20000;-77
2022/10/27 01:55:25;;;;;;;20.25;14.25;;;12.60;99.90;;;;;;6241205;23;20004;-77
2022/10/27 01:58:25;;;;;;;19.60;14.15;;;12.60;99.90;;;;;;6240941;23;19996;-77
2022/10/27 02:00:50;;;;;;;20.02;14.63;;;12.60;99.90;;;;;;6241218;22;20031;-77
2022/10/27 02:03:20;;;;;;;23.75;17.30;;;12.60;99.90;;;;;;6241257;23;20004;-77
2022/10/27 02:06:09;;;;;;;21.98;14.93;;;12.70;99.90;;;;;;6241778;22;20035;-77
2022/10/27 02:08:47;;;;;;;19.88;14.63;;;12.70;99.90;;;;;;6241181;22;20007;-77
2022/10/27 02:11:13;;;;;;;21.27;15.60;;;12.80;99.90;;;;;;6241332;23;20053;-77
2022/10/27 02:13:43;;;;;;;18.92;14.30;;;12.70;99.90;;;;;;6240209;23;20430;-78
2022/10/27 02:16:14;;;;;;;21.90;14.32;;;12.80;99.90;;;;;;6241561;22;20004;-77
2022/10/27 02:18:46;;;;;;;14.95;12.88;;;12.80;99.90;;;;;;6241642;22;20331;-77
2022/10/27 02:21:15;;;;;;;19.52;14.63;;;12.80;99.90;;;;;;6241623;22;19996;-77
2022/10/27 02:23:41;;;;;;;16.90;13.63;;;12.70;99.90;;;;;;6242556;22;19996;-77
2022/10/27 02:26:47;;;;;;;18.85;12.98;;;12.70;99.90;;;;;;6243350;22;20038;-77
2022/10/27 02:29:20;;;;;;;17.63;11.88;;;12.70;99.90;;;;;;6149342;23;20028;-77
2022/10/27 02:31:50;;;;;;;20.42;12.68;;;13.70;99.90;;;;;;6150072;23;20439;-76
2022/10/27 02:34:16;;;;;;;14.65;13.10;;;12.80;99.90;;;;;;6150056;23;20008;-77
2022/10/27 02:36:42;;;;;;;19.02;12.20;;;12.80;99.90;;;;;;6149746;23;20001;-77
2022/10/27 02:39:07;;;;;;;14.15;10.98;;;12.80;99.90;;;;;;6150422;23;20005;-77
2022/10/27 02:41:33;;;;;;;16.27;12.50;;;13.90;99.90;;;;;;6148910;23;20029;-76
2022/10/27 02:43:58;;;;;;;20.85;12.77;;;12.80;99.90;;;;;;6150102;23;20454;-76
2022/10/27 02:46:24;;;;;;;21.85;12.23;;;12.80;99.90;;;;;;6149429;23;20025;-76
2022/10/27 02:48:50;;;;;;;17.70;11.18;;;12.80;99.90;;;;;;6149938;23;20010;-76
2022/10/27 02:51:15;;;;;;;13.52;10.93;;;12.80;99.90;;;;;;6149692;23;20040;-76
2022/10/27 02:53:41;;;;;;;13.95;10.00;;;12.80;99.90;;;;;;6149844;23;20149;-76
2022/10/27 02:56:07;;;;;;;18.10;11.77;;;12.70;99.90;;;;;;6149306;23;20426;-76
2022/10/27 02:58:34;;;;;;;14.13;11.38;;;12.70;99.90;;;;;;6149685;23;20001;-76
2022/10/27 03:00:59;;;;;;;15.82;11.43;;;12.70;99.90;;;;;;6237810;23;20036;-76
2022/10/27 03:03:25;;;;;;;16.33;11.93;;;12.70;99.90;;;;;;6242479;23;20485;-76
2022/10/27 03:05:50;;;;;;;16.33;11.68;;;12.70;99.90;;;;;;6242229;23;20502;-77
2022/10/27 03:08:16;;;;;;;13.27;11.35;;;13.20;99.90;;;;;;6241668;23;20007;-76
2022/10/27 03:10:43;;;;;;;18.35;11.15;;;13.80;99.90;;;;;;6241319;23;20449;-76
2022/10/27 03:13:08;;;;;;;17.45;11.90;;;12.50;99.90;;;;;;6242695;22;20023;-76
2022/10/27 03:15:34;;;;;;;16.20;10.43;;;12.60;99.90;;;;;;6242220;22;20477;-76
2022/10/27 03:17:59;;;;;;;18.98;12.57;;;12.80;99.90;;;;;;6242529;23;19992;-76
2022/10/27 03:20:25;;;;;;;21.05;11.02;;;12.50;99.90;;;;;;6241986;23;20002;-76
2022/10/27 03:22:50;;;;;;;15.70;11.43;;;12.50;99.90;;;;;;6242681;23;20008;-76
2022/10/27 03:25:16;;;;;;;19.98;11.55;;;12.50;99.90;;;;;;6241507;23;20493;-76
2022/10/27 03:27:42;;;;;;;15.75;11.02;;;12.50;99.90;;;;;;6241604;23;20008;-76
2022/10/27 03:30:11;;;;;;;12.15;10.38;;;12.40;99.90;;;;;;6242424;22;19996;-76
2022/10/27 03:32:37;;;;;;;15.27;11.05;;;12.40;99.90;;;;;;6242264;22;20004;-77
2022/10/27 03:35:03;;;;;;;16.08;11.45;;;12.30;99.90;;;;;;6242539;23;20105;-76
2022/10/27 03:37:28;;;;;;;17.65;13.10;;;12.30;99.90;;;;;;6241833;22;20464;-76
2022/10/27 03:39:54;;;;;;;17.40;11.95;;;12.30;99.90;;;;;;6241457;23;20000;-76
2022/10/27 03:42:19;;;;;;;16.20;11.95;;;12.40;99.90;;;;;;6242219;23;20075;-76
2022/10/27 03:44:45;;;;;;;15.23;12.70;;;12.30;99.90;;;;;;6242092;23;20012;-76
2022/10/27 03:47:10;;;;;;;14.90;12.60;;;12.30;99.90;;;;;;6242943;23;20279;-76
2022/10/27 03:49:36;;;;;;;20.45;14.23;;;12.30;99.90;;;;;;6241950;23;20011;-76
2022/10/27 03:52:01;;;;;;;22.10;14.45;;;12.20;99.90;;;;;;6242659;23;20023;-77
2022/10/27 03:54:30;;;;;;;16.75;13.02;;;12.30;99.90;;;;;;6240894;23;20050;-76
2022/10/27 03:56:56;;;;;;;22.15;16.83;;;12.30;99.90;;;;;;6240640;22;20015;-77
2022/10/27 03:59:22;;;;;;;24.73;16.70;;;12.30;99.90;;;;;;6238957;22;20004;-76
2022/10/27 04:01:48;;;;;;;25.25;17.65;;;12.30;99.90;;;;;;6239525;23;20543;-76
2022/10/27 04:04:13;;;;;;;20.73;14.18;;;12.40;99.90;;;;;;6264236;22;20004;-76
2022/10/27 04:06:39;;;;;;;19.88;14.27;;;12.20;99.90;;;;;;6239857;22;20300;-76
2022/10/27 04:09:05;;;;;;;17.77;13.32;;;12.40;99.90;;;;;;6239773;23;20012;-76
2022/10/27 04:11:30;;;;;;;22.67;12.68;;;12.40;99.90;;;;;;6240198;23;20015;-77
2022/10/27 04:13:56;;;;;;;14.13;12.23;;;12.40;99.90;;;;;;6242298;23;20019;-76
2022/10/27 04:16:21;;;;;;;19.42;13.23;;;12.50;99.90;;;;;;6242028;23;20000;-76
2022/10/27 04:18:47;;;;;;;17.48;13.73;;;12.20;99.90;;;;;;6241488;23;20000;-76
2022/10/27 04:21:14;;;;;;;17.90;13.70;;;12.40;99.90;;;;;;6242088;22;20426;-77
2022/10/27 04:23:39;;;;;;;16.73;14.07;;;12.40;99.90;;;;;;6240652;22;20103;-76
2022/10/27 04:26:05;;;;;;;22.48;13.35;;;12.40;99.90;;;;;;6242016;22;20024;-76
2022/10/27 04:28:31;;;;;;;25.17;13.73;;;12.50;99.90;;;;;;6240653;23;20012;-77
2022/10/27 04:30:56;;;;;;;18.63;12.27;;;12.30;99.90;;;;;;6241407;23;20008;-77
2022/10/27 04:33:22;;;;;;;14.75;10.55;;;12.40;99.90;;;;;;6241530;23;20002;-76
2022/10/27 04:35:47;;;;;;;16.92;10.98;;;12.50;99.90;;;;;;6241506;23;20015;-76
2022/10/27 04:38:13;;;;;;;19.15;11.45;;;12.40;99.90;;;;;;6241515;23;20008;-76
2022/10/27 04:40:38;;;;;;;17.67;11.00;;;12.50;99.90;;;;;;6240703;23;20000;-77
2022/10/27 04:43:05;;;;;;;18.67;10.00;;;11.00;99.90;;;;;;6241666;23;20004;-76
2022/10/27 04:45:32;;;;;;;18.25;10.43;;;12.50;99.90;;;;;;6240985;22;19996;-76
2022/10/27 04:47:57;;;;;;;13.27;10.35;;;12.60;99.90;;;;;;6241874;22;19996;-77
2022/10/27 04:50:23;;;;;;;14.75;10.32;;;12.60;99.90;;;;;;6241539;23;20042;-77
2022/10/27 04:53:03;;;;;;;19.67;10.30;;;12.60;99.90;;;;;;6240741;23;20479;-77
2022/10/27 04:55:31;;;;;;;13.30;9.95;;;12.60;99.90;;;;;;6241094;22;20022;-76
2022/10/27 04:57:56;;;;;;;18.55;11.02;;;12.40;99.90;;;;;;6239820;23;20026;-77
2022/10/27 05:00:23;;;;;;;14.68;10.00;;;13.20;99.90;;;;;;6241676;22;20030;-77
2022/10/27 05:02:57;;;;;;;15.40;10.57;;;12.50;99.90;;;;;;6240825;22;20515;-77
2022/10/27 05:05:24;;;;;;;16.73;10.27;;;12.40;99.90;;;;;;6241714;22;19992;-76
2022/10/27 05:08:00;;;;;;;14.73;10.25;;;12.60;99.90;;;;;;6240819;22;20027;-76
2022/10/27 05:10:26;;;;;;;17.40;11.00;;;12.60;99.90;;;;;;6241724;22;19992;-77
2022/10/27 05:12:52;;;;;;;17.17;10.27;;;12.60;99.90;;;;;;6241397;22;20004;-77
2022/10/27 05:15:18;;;;;;;15.35;10.13;;;12.50;99.90;;;;;;6241809;22;19996;-76
2022/10/27 05:17:43;;;;;;;14.77;9.93;;;12.50;99.90;;;;;;6241258;23;20159;-77
2022/10/27 05:20:09;;;;;;;15.88;11.02;;;12.50;99.90;;;;;;6241768;23;20410;-76
2022/10/27 05:22:37;;;;;;;17.92;13.93;;;12.50;99.90;;;;;;6240775;22;20008;-77
2022/10/27 05:25:03;;;;;;;19.38;13.38;;;12.30;99.90;;;;;;6241970;22;20008;-76
2022/10/27 05:27:30;;;;;;;16.15;12.93;;;12.50;99.90;;;;;;6241286;22;20094;-76
2022/10/27 05:29:56;;;;;;;23.63;13.30;;;12.50;99.90;;;;;;6241226;22;20004;-76
2022/10/27 05:32:21;;;;;;;20.63;12.88;;;12.50;99.90;;;;;;6241984;23;20054;-76
2022/10/27 05:34:47;;;;;;;17.98;12.05;;;12.50;99.90;;;;;;6241145;23;20302;-76
2022/10/27 05:37:12;;;;;;;17.95;11.77;;;12.40;99.90;;;;;;6240353;23;20027;-76
2022/10/27 05:39:38;;;;;;;22.52;12.65;;;12.40;99.90;;;;;;6240548;23;20083;-76
2022/10/27 05:42:03;;;;;;;20.52;12.43;;;12.30;99.90;;;;;;6241287;23;20004;-76
2022/10/27 05:44:29;;;;;;;20.05;12.85;;;12.40;99.90;;;;;;6241378;23;20426;-76
2022/10/27 05:46:54;;;;;;;16.35;11.30;;;12.30;99.90;;;;;;6240626;23;20012;-76
2022/10/27 05:49:20;;;;;;;18.58;12.70;;;12.30;99.90;;;;;;6241569;23;20422;-77
2022/10/27 05:51:48;;;;;;;18.80;12.43;;;12.30;99.90;;;;;;6240414;23;20019;-77
2022/10/27 05:54:14;;;;;;;18.35;13.15;;;12.30;99.90;;;;;;6241741;22;20015;-77
2022/10/27 05:56:40;;;;;;;22.65;12.63;;;12.30;99.90;;;;;;6241368;22;19996;-77
2022/10/27 05:59:05;;;;;;;19.95;13.05;;;12.40;99.90;;;;;;6243491;23;20501;-76
2022/10/27 06:01:31;;;;;;;20.27;13.55;;;12.40;99.90;;;;;;6243433;23;20000;-76
2022/10/27 06:03:56;;;;;;;27.30;16.30;;;12.30;99.90;;;;;;6242913;23;20011;-77
2022/10/27 06:06:22;;;;;;;22.60;12.38;;;12.30;99.90;;;;;;6242891;23;20004;-76
2022/10/27 06:08:48;;;;;;;14.50;11.73;;;12.40;99.90;;;;;;6242921;22;19996;-77
2022/10/27 06:11:13;;;;;;;23.77;12.93;;;12.30;99.90;;;;;;6243565;23;20016;-77
2022/10/27 06:13:39;;;;;;;16.63;12.13;;;12.40;99.90;;;;;;6242410;23;20004;-76
2022/10/27 06:16:04;;;;;;;18.45;12.20;;;12.40;99.90;;;;;;6243260;23;20330;-76
2022/10/27 06:18:30;;;;;;;18.92;11.75;;;12.30;99.90;;;;;;6243113;23;20007;-76
2022/10/27 06:20:56;;;;;;;19.65;11.40;;;12.40;99.90;;;;;;6242004;23;20027;-76
2022/10/27 06:23:21;;;;;;;22.27;11.63;;;12.30;99.90;;;;;;6243278;23;20437;-77
2022/10/27 06:25:47;;;;;;;17.60;11.18;;;12.40;99.90;;;;;;6242673;23;20004;-76
2022/10/27 06:28:12;;;;;;;17.85;12.05;;;12.30;99.90;;;;;;6242703;23;20000;-77
2022/10/27 06:30:38;;;;;;;16.35;10.95;;;12.30;99.90;;;;;;6242777;23;20071;-76
2022/10/27 06:33:03;;;;;;;17.25;13.27;;;12.40;99.90;;;;;;6242915;23;20031;-76
2022/10/27 06:35:29;;;;;;;15.55;10.98;;;12.30;99.90;;;;;;6242343;23;20000;-76
2022/10/27 06:37:54;;;;;;;19.00;12.10;;;12.30;99.90;;;;;;6266804;22;20027;-77
2022/10/27 06:40:20;;;;;;;17.50;10.98;;;12.50;99.90;;;;;;6243327;23;20004;-77
2022/10/27 06:42:48;;;;;;;28.63;12.75;;;12.40;99.90;;;;;;6242498;23;20441;-77
2022/10/27 06:45:16;;;;;;;22.55;13.25;;;12.30;99.90;;;;;;6242791;22;20008;-76
2022/10/27 06:47:42;;;;;;;22.15;14.20;;;12.30;99.90;;;;;;6242711;22;20000;-77
2022/10/27 06:50:08;;;;;;;21.42;13.68;;;12.40;99.90;;;;;;6242205;23;20426;-77
2022/10/27 06:52:39;;;;;;;17.75;12.73;;;12.40;99.90;;;;;;6242688;22;20005;-77
2022/10/27 06:55:06;;;;;;;20.33;12.23;;;12.40;99.90;;;;;;6242277;23;20008;-74
2022/10/27 06:57:40;;;;;;;20.15;12.98;;;12.50;99.90;;;;;;6242068;22;20466;-74
2022/10/27 07:00:06;;;;;;;20.42;12.95;;;12.40;99.90;;;;;;6242205;22;19996;-74
2022/10/27 07:02:32;;;;;;;18.60;12.50;;;12.50;99.90;;;;;;6241398;22;20084;-74
2022/10/27 07:04:57;;;;;;;22.98;13.38;;;11.30;99.90;;;;;;6241896;23;20433;-74
2022/10/27 07:07:23;;;;;;;18.10;12.52;;;12.50;99.90;;;;;;6241836;23;20079;-74
2022/10/27 07:09:48;;;;;;;19.33;12.05;;;13.20;99.90;;;;;;6241767;23;19992;-74
2022/10/27 07:12:14;;;;;;;18.27;11.75;;;12.50;99.90;;;;;;6242181;23;20079;-74
2022/10/27 07:14:39;;;;;;;24.48;12.90;;;12.70;99.90;;;;;;6241719;23;20102;-73
2022/10/27 07:17:05;;;;;;;23.88;13.32;;;12.40;99.90;;;;;;6241676;23;20023;-74
2022/10/27 07:19:30;;;;;;;19.55;13.00;;;12.80;99.90;;;;;;6242026;23;20000;-74
2022/10/27 07:21:56;;;;;;;19.95;11.68;;;12.70;99.90;;;;;;6241622;23;20000;-74
2022/10/27 07:24:21;;;;;;;16.83;12.27;;;12.80;99.90;;;;;;6242026;23;20000;-74
2022/10/27 07:26:47;;;;;;;20.08;12.05;;;12.80;99.90;;;;;;6241523;23;20437;-74
2022/10/27 07:29:12;;;;;;;17.02;11.63;;;12.90;99.90;;;;;;6242013;23;20091;-73
2022/10/27 07:31:38;;;;;;;17.98;10.93;;;12.90;99.90;;;;;;6241192;23;20004;-73
2022/10/27 07:34:03;;;;;;;20.50;12.50;;;12.90;99.90;;;;;;6242084;23;20004;-73
2022/10/27 07:36:29;;;;;;;16.30;13.52;;;13.00;99.90;;;;;;6241885;23;19996;-74
2022/10/27 07:38:54;;;;;;;16.83;12.00;;;13.00;99.90;;;;;;6241439;23;19996;-73
2022/10/27 07:41:20;;;;;;;18.42;11.23;;;13.00;99.90;;;;;;6241491;23;20030;-73
2022/10/27 07:43:47;;;;;;;18.27;12.70;;;13.00;99.90;;;;;;6241479;22;20000;-73
2022/10/27 07:46:13;;;;;;;16.27;12.63;;;13.00;99.90;;;;;;6241224;22;20007;-73
2022/10/27 07:48:39;;;;;;;20.00;12.40;;;13.00;99.90;;;;;;6241272;22;20367;-73
2022/10/27 07:51:05;;;;;;;20.48;12.77;;;13.10;99.90;;;;;;6241856;23;20047;-73
2022/10/27 07:53:30;;;;;;;18.45;11.68;;;13.30;99.90;;;;;;6265400;22;20027;-73
2022/10/27 07:55:57;;;;;;;15.85;10.77;;;13.10;99.90;;;;;;6240897;23;20821;-73
2022/10/27 07:58:23;;;;;;;22.15;11.57;;;13.10;99.90;;;;;;6241564;22;20012;-73
2022/10/27 08:00:48;;;;;;;18.10;12.35;;;13.20;99.90;;;;;;6240075;23;20083;-73
2022/10/27 08:03:16;;;;;;;12.32;10.60;;;13.20;99.90;;;;;;6241474;23;20329;-73
2022/10/27 08:05:42;;;;;;;16.30;10.93;;;13.10;99.90;;;;;;6241097;22;20027;-73
2022/10/27 08:08:08;;;;;;;18.65;12.27;;;13.20;99.90;;;;;;6240553;23;19996;-73
2022/10/27 08:10:36;;;;;;;17.48;11.10;;;13.00;99.90;;;;;;6241363;23;20000;-73
2022/10/27 08:13:02;;;;;;;11.80;9.48;;;13.20;99.90;;;;;;6241510;22;20414;-73
2022/10/27 08:15:28;;;;;;;15.40;11.50;;;13.20;99.90;;;;;;6240827;22;20102;-73
2022/10/27 08:17:58;;;;;;;15.25;12.00;;;13.20;99.90;;;;;;6265058;22;20039;-73
2022/10/27 08:20:24;;;;;;;20.48;12.90;;;14.20;99.90;;;;;;6240941;22;20003;-73
2022/10/27 08:22:58;;;;;;;15.85;13.52;;;13.40;99.90;;;;;;6241203;22;20078;-73
2022/10/27 08:25:23;;;;;;;17.15;11.52;;;13.50;99.90;;;;;;6241548;22;20369;-73
2022/10/27 08:27:49;;;;;;;14.60;11.75;;;13.90;99.90;;;;;;6240725;22;20000;-73
2022/10/27 08:30:15;;;;;;;16.85;11.75;;;14.60;99.90;;;;;;6264589;22;20012;-73
2022/10/27 08:32:40;;;;;;;15.07;11.20;;;13.90;99.90;;;;;;6240763;23;20008;-73
2022/10/27 08:35:06;;;;;;;18.05;11.07;;;13.70;99.90;;;;;;6241445;23;20008;-73
2022/10/27 08:37:32;;;;;;;15.80;10.43;;;14.10;99.90;;;;;;6241315;22;20008;-73
2022/10/27 08:39:57;;;;;;;15.20;10.57;;;14.10;99.90;;;;;;6240853;23;20351;-73
2022/10/27 08:42:56;;;;;;;15.85;8.70;;;14.20;99.90;;;;;;6240478;23;20417;-73
2022/10/27 08:46:14;;;;;;;11.00;8.25;;;14.30;99.90;;;;;;6264179;22;20004;-73
2022/10/27 08:48:41;;;;;;;14.00;8.50;;;14.40;99.90;;;;;;6205351;22;20021;-73
2022/10/27 08:51:14;;;;;;;12.30;7.65;;;14.50;99.90;;;;;;6241354;22;20008;-72
2022/10/27 08:53:42;;;;;;;12.40;7.83;;;14.50;99.90;;;;;;6241205;22;20028;-73
2022/10/27 08:56:09;;;;;;;9.98;7.18;;;14.60;99.90;;;;;;6241473;22;20253;-72
2022/10/27 08:58:43;;;;;;;8.48;6.07;;;14.70;99.90;;;;;;6240452;22;20000;-71
2022/10/27 09:01:18;;;;;;;;;;;14.80;99.90;;;;;;6241651;22;19996;-72
2022/10/27 09:04:06;;;;;;;;;;;14.90;99.90;;;;;;6241272;23;19899;-73
2022/10/27 09:06:46;;;;;;;10.90;7.68;;;15.00;99.90;;;;;;6241143;22;19975;-73
2022/10/27 09:09:47;;;;;;;11.85;6.63;;;15.20;99.90;;;;;;6241126;22;19996;-73
2022/10/27 09:12:17;;;;;;;11.77;5.32;;;15.30;99.90;;;;;;6177458;23;20116;-73
2022/10/27 09:15:20;;;;;;;8.38;5.40;;;15.30;99.90;;;;;;6176333;23;20008;-73
2022/10/27 09:17:48;;;;;;;7.60;5.45;;;15.40;99.90;;;;;;6176831;23;20008;-72
2022/10/27 09:20:32;;;;;;;10.38;4.32;;;15.40;99.90;;;;;;6178083;23;20103;-73
2022/10/27 09:23:00;;;;;;;8.88;5.22;;;15.40;99.90;;;;;;6177442;23;20088;-73
2022/10/27 09:25:27;;;;;;;5.97;4.03;;;15.60;99.90;;;;;;6152347;23;20005;-73
2022/10/27 09:27:55;;;;;;;6.50;3.70;;;15.70;99.90;;;;;;6175677;23;20096;-73
2022/10/27 09:30:21;;;;;;;6.47;3.20;;;15.80;99.90;;;;;;6177743;23;20001;-73
2022/10/27 09:32:52;;;;;;;5.60;3.08;;;15.90;99.90;;;;;;6179008;23;20016;-73
2022/10/27 09:35:25;;;;;;;5.10;2.90;;;16.10;99.90;;;;;;6179390;23;20015;-73
2022/10/27 09:37:52;;;;;;;6.47;2.60;;;16.20;99.90;;;;;;6179410;23;20056;-73
2022/10/27 09:40:19;;;;;;;7.30;2.72;;;16.30;99.90;;;;;;6179418;23;20040;-72
2022/10/27 09:42:49;;;;;;;5.82;2.58;;;16.40;99.90;;;;;;6178308;23;20120;-73
2022/10/27 09:45:18;;;;;;;6.05;2.20;;;16.50;99.90;;;;;;6179975;23;20016;-72
2022/10/27 09:47:52;;;;;;;4.80;2.30;;;16.70;99.90;;;;;;6209946;23;20000;-72
2022/10/27 09:50:23;;;;;;;6.65;2.00;;;16.80;99.90;;;;;;6243093;22;19996;-72
2022/10/27 09:52:50;;;;;;;4.45;1.95;;;16.90;99.90;;;;;;6242511;22;20004;-72
2022/10/27 09:55:17;;;;;;;3.38;1.85;;;17.00;99.90;;;;;;6243093;22;20000;-72
2022/10/27 09:57:45;;;;;;;2.90;1.33;;;17.10;99.90;;;;;;6242105;22;20008;-72
2022/10/27 10:00:20;;;;;;;4.85;1.58;;;16.90;99.90;;;;;;6243272;22;20325;-73
2022/10/27 10:03:05;;;;;;;6.65;1.70;;;17.30;99.90;;;;;;6242090;22;20004;-74
2022/10/27 10:05:35;;;;;;;4.63;1.38;;;17.30;99.90;;;;;;6242756;22;20075;-72
2022/10/27 10:08:13;;;;;;;4.93;1.40;;;18.50;99.90;;;;;;6242519;22;20012;-72
2022/10/27 10:10:39;;;;;;;3.60;1.70;;;18.60;99.90;;;;;;6242250;22;20001;-73
2022/10/27 10:13:13;;;;;;;2.55;1.38;;;17.30;99.90;;;;;;6241969;22;20036;-72
2022/10/27 10:15:44;;;;;;;2.88;1.23;;;17.50;99.90;;;;;;6242423;22;20452;-72
2022/10/27 10:18:27;;;;;;;3.05;0.90;;;17.40;99.90;;;;;;6242877;22;20426;-73
2022/10/27 10:21:04;;;;;;;2.42;1.38;;;17.50;99.90;;;;;;6242169;22;20367;-73
2022/10/27 10:23:33;;;;;;;3.00;1.50;;;17.60;99.90;;;;;;6242749;22;20000;-72
2022/10/27 10:26:01;;;;;;;2.33;0.80;;;17.50;99.90;;;;;;6241720;23;20130;-73
2022/10/27 10:28:41;;;;;;;4.65;1.65;;;17.70;99.90;;;;;;6242400;22;20493;-72
2022/10/27 10:31:10;;;;;;;2.33;0.73;;;20.20;99.90;;;;;;6242560;22;20004;-73
2022/10/27 10:33:41;;;;;;;3.40;1.35;;;17.90;99.90;;;;;;6242310;22;19996;-73
2022/10/27 10:36:35;;;;;;;4.68;0.90;;;18.00;99.90;;;;;;6242648;22;20000;-72
2022/10/27 10:39:08;;;;;;;3.25;0.85;;;18.10;99.90;;;;;;6242289;22;20054;-72
2022/10/27 10:41:33;;;;;;;6.20;0.93;;;18.10;99.90;;;;;;6265639;22;20426;-72
2022/10/27 10:44:14;;;;;;;4.03;1.00;;;18.10;99.90;;;;;;6241695;23;20049;-73
2022/10/27 10:47:01;;;;;;;1.85;1.17;;;18.30;99.90;;;;;;6242467;22;20117;-72
2022/10/27 10:49:35;;;;;;;3.90;1.00;;;20.70;99.90;;;;;;6241818;23;20028;-72
2022/10/27 10:52:05;;;;;;;3.88;1.02;;;18.50;99.90;;;;;;6242061;22;20140;-73
2022/10/27 10:54:36;;;;;;;5.07;0.90;;;18.50;99.90;;;;;;6241523;22;20083;-75
2022/10/27 10:57:02;;;;;;;6.35;1.63;;;18.60;99.90;;;;;;6241920;22;20000;-75
2022/10/27 10:59:30;;;;;;;3.65;1.58;;;18.60;99.90;;;;;;6241914;23;20004;-75
2022/10/27 11:02:24;;;;;;;3.70;1.20;;;18.60;99.90;;;;;;6241316;22;20076;-74
2022/10/27 11:04:50;;;;;;;3.17;0.98;;;18.60;99.90;;;;;;6241204;22;20039;-73
2022/10/27 11:07:32;;;;;;;1.10;0.75;;;18.70;99.90;;;;;;6242213;22;19993;-72
2022/10/27 11:10:14;;;;;;;8.13;1.35;;;18.70;99.90;;;;;;6241034;23;20028;-73
2022/10/27 11:12:49;;;;;;;6.18;1.75;;;18.80;99.90;;;;;;6241869;22;20007;-72
2022/10/27 11:15:27;;;;;;;2.72;1.17;;;18.80;99.90;;;;;;6241522;22;20015;-73
2022/10/27 11:17:57;;;;;;;6.45;1.20;;;18.90;99.90;;;;;;6241596;22;20004;-73
2022/10/27 11:20:27;;;;;;;2.80;1.20;;;18.90;99.90;;;;;;6241956;22;20326;-72
2022/10/27 11:22:55;;;;;;;9.80;2.00;;;19.00;99.90;;;;;;6240744;22;20127;-71
2022/10/27 11:25:24;;;;;;;2.95;1.60;;;19.00;99.90;;;;;;6241459;22;20024;-71
2022/10/27 11:28:22;;;;;;;4.82;1.00;;;19.20;99.90;;;;;;6241138;22;20112;-71
2022/10/27 11:30:59;;;;;;;3.30;0.70;;;19.20;99.90;;;;;;6241349;22;20429;-71
2022/10/27 11:33:39;;;;;;;6.50;1.58;;;19.20;99.90;;;;;;6241897;23;20004;-71
2022/10/27 11:36:18;;;;;;;4.90;1.30;;;19.20;99.90;;;;;;6241538;22;20004;-70
2022/10/27 11:39:02;;;;;;;4.57;1.45;;;19.20;99.90;;;;;;6240661;23;20535;-71
2022/10/27 11:41:47;;;;;;;2.75;0.95;;;19.20;99.90;;;;;;6239475;23;20084;-71
2022/10/27 11:44:36;;;;;;;3.55;0.82;;;19.20;99.90;;;;;;6240797;22;20428;-71
2022/10/27 11:47:26;;;;;;;4.93;1.20;;;19.20;99.90;;;;;;6241607;22;20426;-71
2022/10/27 11:49:58;;;;;;;1.77;0.80;;;19.20;99.90;;;;;;6241387;22;20055;-71
2022/10/27 11:52:34;;;;;;;5.20;0.95;;;19.20;99.90;;;;;;6241237;22;20000;-71
2022/10/27 11:55:04;;;;;;;2.72;1.10;;;19.60;99.90;;;;;;6263116;22;20075;-71
2022/10/27 11:57:42;;;;;;;4.05;1.10;;;19.30;99.90;;;;;;6241695;22;20227;-71
2022/10/27 12:00:25;;;;;;;5.95;1.30;;;19.40;99.90;;;;;;6241380;22;20000;-71
2022/10/27 12:03:18;;;;;;;5.95;1.45;;;19.40;99.90;;;;;;6241307;22;20008;-71
2022/10/27 12:05:55;;;;;;;6.97;2.30;;;19.40;99.90;;;;;;6241793;23;20244;-71
2022/10/27 12:08:42;;;;;;;6.10;1.25;;;19.50;99.90;;;;;;6241344;22;20001;-71
2022/10/27 12:11:34;;;;;;;4.80;1.38;;;19.50;99.90;;;;;;6241087;23;20099;-71
2022/10/27 12:14:04;;;;;;;3.50;1.17;;;19.50;99.90;;;;;;6240419;23;20007;-70
2022/10/27 12:16:44;;;;;;;4.72;0.95;;;19.50;99.90;;;;;;6241279;22;20388;-71
2022/10/27 12:19:28;;;;;;;6.53;1.10;;;19.80;99.90;;;;;;6241214;23;20040;-72
2022/10/27 12:22:09;;;;;;;2.83;0.80;;;19.60;99.90;;;;;;6240607;22;20245;-72
2022/10/27 12:25:05;;;;;;;4.75;0.93;;;19.70;99.90;;;;;;6241674;22;20043;-72
2022/10/27 12:27:46;;;;;;;6.05;1.30;;;19.70;99.90;;;;;;6240542;22;20036;-73
2022/10/27 12:30:20;;;;;;;4.38;1.40;;;19.60;99.90;;;;;;6241116;22;20000;-72
2022/10/27 12:33:19;;;;;;;2.90;1.10;;;19.60;99.90;;;;;;6241274;22;20083;-73
2022/10/27 12:35:50;;;;;;;2.47;0.90;;;19.60;99.90;;;;;;6239393;23;20016;-72
2022/10/27 12:38:23;;;;;;;2.53;0.98;;;19.60;99.90;;;;;;6240673;23;20361;-73
2022/10/27 12:41:20;;;;;;;4.68;1.35;;;20.30;99.90;;;;;;6241257;22;20004;-73
2022/10/27 12:43:48;;;;;;;3.67;1.63;;;19.60;99.90;;;;;;6241118;22;20120;-73
2022/10/27 12:46:28;;;;;;;3.13;1.30;;;19.50;99.90;;;;;;6240461;23;20007;-72
2022/10/27 12:49:19;;;;;;;1.85;0.90;;;19.50;99.90;;;;;;6240378;23;20185;-72
2022/10/27 12:51:45;;;;;;;2.63;1.17;;;19.50;99.90;;;;;;6240751;22;20012;-73
2022/10/27 12:54:49;;;;;;;6.10;1.20;;;19.30;99.90;;;;;;6240746;23;20363;-72